UAE339 UZTT-OMDB
Flight info
| Callsign | UAE339 |
|---|---|
| Flight time | N/A |
| Altitude | 38000 |
| Route | KUFIM2A KUFIM L170 MOSOM A114 OLRAM L148 AMDAR/N0510F290 A454 KHOLM/N0503F280 M375 BOTAN/N0504F320 M375 PAROD/N0510F310 V390 SERKA/N0487F370 B466 KALAT/N0484F380 G325 PG J215 TU J185 BIVIN R462 VUSET DCT ITURA DCT TAPRA M762 VAXAS/N0473F240 M564 NALNU Q568 IMPED |
| Aircraft | B77W/H-SDE1E2E3FGHIJ2J3J4J5M1RWXY/LB1D1 |
Departure
| Time | N/A |
|---|---|
| Airport | Tashkent International Airport (UZTT) |
Arrival
| Time | 2026-04-25 22:16 |
|---|---|
| Airport | Dubai International Airport (OMDB) |
| Time | Latitude | Longitude | Altitude | Speed | Heading |
|---|---|---|---|---|---|
| 2026-04-25 21:51 | 24.26601 | 57.49367 | 37835 ft | 464 kts | 285° |
| 2026-04-25 21:51 | 24.27985 | 57.42437 | 37828 ft | 464 kts | 285° |
| 2026-04-25 21:52 | 24.29356 | 57.35556 | 37837 ft | 464 kts | 285° |
| 2026-04-25 21:52 | 24.30726 | 57.28666 | 37845 ft | 464 kts | 284° |
| 2026-04-25 21:53 | 24.32090 | 57.21782 | 37842 ft | 463 kts | 285° |
| 2026-04-25 21:53 | 24.33447 | 57.14920 | 37804 ft | 455 kts | 284° |
| 2026-04-25 21:53 | 24.34116 | 57.11527 | 37175 ft | 452 kts | 284° |
| 2026-04-25 21:54 | 24.34777 | 57.08176 | 35996 ft | 460 kts | 284° |
| 2026-04-25 21:54 | 24.35455 | 57.04740 | 34553 ft | 472 kts | 283° |
| 2026-04-25 21:54 | 24.36148 | 57.01221 | 33021 ft | 482 kts | 282° |
| 2026-04-25 21:54 | 24.36858 | 56.97605 | 31845 ft | 482 kts | 282° |
| 2026-04-25 21:55 | 24.37558 | 56.94036 | 31220 ft | 474 kts | 282° |
| 2026-04-25 21:55 | 24.38238 | 56.90561 | 30508 ft | 462 kts | 282° |
| 2026-04-25 21:55 | 24.38904 | 56.87159 | 29775 ft | 457 kts | 281° |
| 2026-04-25 21:55 | 24.39566 | 56.83772 | 29018 ft | 455 kts | 281° |
| 2026-04-25 21:56 | 24.40228 | 56.80378 | 28308 ft | 453 kts | 281° |
| 2026-04-25 21:56 | 24.40660 | 56.78160 | 27868 ft | 450 kts | 281° |
| 2026-04-25 21:56 | 24.41522 | 56.73733 | 27050 ft | 445 kts | 281° |
| 2026-04-25 21:56 | 24.42169 | 56.70407 | 26401 ft | 441 kts | 281° |
| 2026-04-25 21:57 | 24.42881 | 56.67169 | 25694 ft | 439 kts | 286° |
| 2026-04-25 21:57 | 24.43999 | 56.64093 | 25003 ft | 438 kts | 295° |
| 2026-04-25 21:57 | 24.45556 | 56.61227 | 24338 ft | 437 kts | 303° |
| 2026-04-25 21:57 | 24.47488 | 56.58665 | 23671 ft | 435 kts | 310° |
| 2026-04-25 21:58 | 24.49544 | 56.56278 | 23012 ft | 432 kts | 311° |
| 2026-04-25 21:58 | 24.51613 | 56.53887 | 22323 ft | 429 kts | 310° |
| 2026-04-25 21:58 | 24.53462 | 56.51394 | 21615 ft | 423 kts | 305° |
| 2026-04-25 21:58 | 24.55210 | 56.48814 | 20856 ft | 415 kts | 304° |
| 2026-04-25 21:59 | 24.56902 | 56.46304 | 20122 ft | 407 kts | 304° |
| 2026-04-25 21:59 | 24.58562 | 56.43838 | 19506 ft | 405 kts | 304° |
| 2026-04-25 21:59 | 24.60238 | 56.41348 | 18888 ft | 402 kts | 304° |
| 2026-04-25 22:00 | 24.63520 | 56.36469 | 17692 ft | 396 kts | 304° |
| 2026-04-25 22:00 | 24.65166 | 56.34020 | 17089 ft | 394 kts | 304° |
| 2026-04-25 22:00 | 24.66763 | 56.31643 | 16509 ft | 391 kts | 304° |
| 2026-04-25 22:00 | 24.68375 | 56.29240 | 15896 ft | 389 kts | 305° |
| 2026-04-25 22:01 | 24.69984 | 56.26844 | 15319 ft | 386 kts | 305° |
| 2026-04-25 22:01 | 24.71556 | 56.24500 | 14781 ft | 382 kts | 305° |
| 2026-04-25 22:01 | 24.73133 | 56.22147 | 14185 ft | 380 kts | 305° |
| 2026-04-25 22:01 | 24.74174 | 56.20594 | 13778 ft | 379 kts | 305° |
| 2026-04-25 22:02 | 24.76251 | 56.17493 | 12971 ft | 378 kts | 306° |
| 2026-04-25 22:02 | 24.77808 | 56.15170 | 12361 ft | 379 kts | 306° |
| 2026-04-25 22:02 | 24.79355 | 56.12862 | 11764 ft | 378 kts | 305° |
| 2026-04-25 22:02 | 24.80913 | 56.10537 | 11156 ft | 375 kts | 305° |
| 2026-04-25 22:03 | 24.82435 | 56.08269 | 10756 ft | 358 kts | 305° |
| 2026-04-25 22:03 | 24.83850 | 56.06163 | 10731 ft | 328 kts | 305° |
| 2026-04-25 22:03 | 24.85162 | 56.04209 | 10736 ft | 305 kts | 305° |
| 2026-04-25 22:03 | 24.86406 | 56.02355 | 10585 ft | 295 kts | 305° |
| 2026-04-25 22:04 | 24.87607 | 56.00565 | 10433 ft | 286 kts | 305° |
| 2026-04-25 22:04 | 24.88786 | 55.98804 | 10285 ft | 289 kts | 305° |
| 2026-04-25 22:04 | 24.89951 | 55.97065 | 10140 ft | 280 kts | 305° |
| 2026-04-25 22:04 | 24.91094 | 55.95348 | 9868 ft | 278 kts | 304° |
| 2026-04-25 22:05 | 24.92248 | 55.93612 | 9485 ft | 279 kts | 304° |
| 2026-04-25 22:05 | 24.93390 | 55.91892 | 9122 ft | 280 kts | 304° |
| 2026-04-25 22:05 | 24.94531 | 55.90160 | 8769 ft | 279 kts | 303° |
| 2026-04-25 22:05 | 24.95594 | 55.88365 | 8434 ft | 278 kts | 301° |
| 2026-04-25 22:06 | 24.96636 | 55.86573 | 8104 ft | 279 kts | 301° |
| 2026-04-25 22:06 | 24.97683 | 55.84765 | 7759 ft | 279 kts | 302° |
| 2026-04-25 22:06 | 24.98728 | 55.82961 | 7421 ft | 279 kts | 302° |
| 2026-04-25 22:06 | 24.99770 | 55.81166 | 7084 ft | 279 kts | 302° |
| 2026-04-25 22:07 | 25.00812 | 55.79371 | 6738 ft | 279 kts | 302° |
| 2026-04-25 22:07 | 25.01502 | 55.78180 | 6518 ft | 278 kts | 302° |
| 2026-04-25 22:07 | 25.02903 | 55.75782 | 6074 ft | 276 kts | 303° |
| 2026-04-25 22:07 | 25.03941 | 55.74025 | 5749 ft | 274 kts | 303° |
| 2026-04-25 22:08 | 25.04983 | 55.72273 | 5430 ft | 272 kts | 304° |
| 2026-04-25 22:08 | 25.06009 | 55.70570 | 5308 ft | 262 kts | 304° |
| 2026-04-25 22:08 | 25.07028 | 55.68940 | 5227 ft | 252 kts | 305° |
| 2026-04-25 22:08 | 25.08024 | 55.67384 | 5146 ft | 241 kts | 303° |
| 2026-04-25 22:09 | 25.08951 | 55.65918 | 5054 ft | 230 kts | 305° |
| 2026-04-25 22:09 | 25.09859 | 55.64473 | 4977 ft | 220 kts | 304° |
| 2026-04-25 22:09 | 25.10686 | 55.63125 | 4851 ft | 207 kts | 304° |
| 2026-04-25 22:09 | 25.11465 | 55.61827 | 4635 ft | 197 kts | 303° |
| 2026-04-25 22:10 | 25.12191 | 55.60574 | 4412 ft | 191 kts | 303° |
| 2026-04-25 22:10 | 25.12878 | 55.59361 | 4147 ft | 182 kts | 302° |
| 2026-04-25 22:10 | 25.13547 | 55.58172 | 3884 ft | 183 kts | 302° |
| 2026-04-25 22:10 | 25.14203 | 55.56998 | 3620 ft | 176 kts | 302° |
| 2026-04-25 22:11 | 25.14846 | 55.55846 | 3358 ft | 171 kts | 302° |
| 2026-04-25 22:11 | 25.15457 | 55.54752 | 3102 ft | 164 kts | 302° |
| 2026-04-25 22:11 | 25.16043 | 55.53703 | 2850 ft | 159 kts | 302° |
| 2026-04-25 22:11 | 25.16616 | 55.52676 | 2601 ft | 151 kts | 302° |
| 2026-04-25 22:12 | 25.17148 | 55.51726 | 2341 ft | 143 kts | 302° |
| 2026-04-25 22:12 | 25.17656 | 55.50816 | 2089 ft | 137 kts | 302° |
| 2026-04-25 22:12 | 25.18156 | 55.49920 | 2020 ft | 137 kts | 303° |
| 2026-04-25 22:12 | 25.18488 | 55.49327 | 2001 ft | 136 kts | 303° |
| 2026-04-25 22:13 | 25.19163 | 55.48122 | 1999 ft | 137 kts | 303° |
| 2026-04-25 22:13 | 25.19668 | 55.47222 | 1839 ft | 138 kts | 303° |
| 2026-04-25 22:13 | 25.20172 | 55.46325 | 1662 ft | 137 kts | 303° |
| 2026-04-25 22:13 | 25.20686 | 55.45427 | 1482 ft | 138 kts | 302° |
| 2026-04-25 22:14 | 25.20851 | 55.45129 | 1434 ft | 138 kts | 301° |
| 2026-04-25 22:14 | 25.22185 | 55.42736 | 991 ft | 141 kts | 302° |
| 2026-04-25 22:14 | 25.22664 | 55.41887 | 813 ft | 143 kts | 301° |
| 2026-04-25 22:15 | 25.23167 | 55.40939 | 594 ft | 144 kts | 302° |
| 2026-04-25 22:15 | 25.23707 | 55.40004 | 415 ft | 145 kts | 301° |
| 2026-04-25 22:15 | 25.24237 | 55.39046 | 250 ft | 146 kts | 301° |
| 2026-04-25 22:16 | 25.25254 | 55.37224 | 46 ft | 118 kts | 300° |
| 2026-04-25 22:16 | 25.25627 | 55.36544 | 45 ft | 90 kts | 302° |
| 2026-04-25 22:16 | 25.25876 | 55.36091 | 45 ft | 46 kts | 302° |
| 2026-04-25 22:16 | 25.26002 | 55.35864 | 45 ft | 33 kts | 300° |
| 2026-04-25 22:17 | 25.26106 | 55.35647 | 45 ft | 31 kts | 287° |
| 2026-04-25 22:17 | 25.26133 | 55.35415 | 45 ft | 29 kts | 271° |
| 2026-04-25 22:17 | 25.26169 | 55.35207 | 45 ft | 27 kts | 303° |
| 2026-04-25 22:17 | 25.26263 | 55.35036 | 45 ft | 25 kts | 300° |
| 2026-04-25 22:18 | 25.26333 | 55.34909 | 45 ft | 14 kts | 303° |
| 2026-04-25 22:18 | 25.26387 | 55.34813 | 45 ft | 14 kts | 301° |
| 2026-04-25 22:18 | 25.26438 | 55.34719 | 45 ft | 14 kts | 301° |
| 2026-04-25 22:18 | 25.26488 | 55.34628 | 45 ft | 13 kts | 299° |
| 2026-04-25 22:19 | 25.26485 | 55.34557 | 45 ft | 7 kts | 244° |
| 2026-04-25 22:19 | 25.26477 | 55.34507 | 45 ft | 5 kts | 286° |
| 2026-04-25 22:19 | 25.26492 | 55.34465 | 45 ft | 6 kts | 301° |
| 2026-04-25 22:19 | 25.26515 | 55.34423 | 45 ft | 6 kts | 300° |
| 2026-04-25 22:20 | 25.26519 | 55.34409 | 45 ft | 1 kts | 267° |
| 2026-04-25 22:20 | 25.26506 | 55.34390 | 45 ft | 3 kts | 223° |
| 2026-04-25 22:20 | 25.26488 | 55.34375 | 45 ft | 3 kts | 213° |
| 2026-04-25 22:20 | 25.26475 | 55.34365 | 45 ft | 0 kts | 211° |
| 2026-04-25 22:21 | 25.26470 | 55.34362 | 45 ft | 1 kts | 211° |
| 2026-04-25 22:21 | 25.26458 | 55.34354 | 45 ft | 1 kts | 211° |
| 2026-04-25 22:21 | 25.26450 | 55.34349 | 45 ft | 1 kts | 210° |